Time,TemperatureF,DewpointF,PressureIn,WindDirection,WindDirectionDegrees,WindSpeedMPH,WindSpeedGustMPH,Humidity,HourlyPrecipIn,Conditions,Clouds,dailyrainin,SolarRadiationWatts/m^2,SoftwareType,DateUTC
2013-05-04 00:00:00,47.0,39.8,30.37,North,5,0.0,0.0,76,0.00,,,0.00,0.00,VWS V14.01,2013-05-04 04:00:00,
2013-05-04 00:01:00,46.9,40.1,30.37,North,5,0.0,0.0,77,0.00,,,0.00,,VWS V14.01,2013-05-04 04:01:00,
2013-05-04 00:06:00,46.7,39.9,30.37,North,5,0.0,0.0,77,0.00,,,0.00,,VWS V14.01,2013-05-04 04:06:00,
2013-05-04 00:11:00,46.4,39.6,30.37,North,5,0.0,0.0,77,0.00,,,0.00,,VWS V14.01,2013-05-04 04:11:00,
2013-05-04 00:15:00,46.3,39.5,30.37,North,5,0.0,0.0,77,0.00,,,0.00,0.00,VWS V14.01,2013-05-04 04:15:00,
2013-05-04 00:16:00,46.1,39.6,30.37,North,5,0.0,0.0,78,0.00,,,0.00,,VWS V14.01,2013-05-04 04:16:00,
2013-05-04 00:21:00,46.0,39.5,30.37,North,5,0.0,0.0,78,0.00,,,0.00,,VWS V14.01,2013-05-04 04:21:00,
2013-05-04 00:26:00,45.7,39.6,30.37,North,5,0.0,0.0,79,0.00,,,0.00,,VWS V14.01,2013-05-04 04:26:00,
2013-05-04 00:30:00,45.6,39.8,30.37,North,5,0.0,0.0,80,0.00,,,0.00,0.00,VWS V14.01,2013-05-04 04:30:00,
2013-05-04 00:31:00,45.6,39.8,30.37,North,5,0.0,0.0,80,0.00,,,0.00,,VWS V14.01,2013-05-04 04:31:00,
2013-05-04 00:36:00,45.4,39.6,30.37,North,5,0.0,0.0,80,0.00,,,0.00,,VWS V14.01,2013-05-04 04:36:00,
2013-05-04 00:41:00,45.3,39.5,30.37,North,5,0.0,0.0,80,0.00,,,0.00,,VWS V14.01,2013-05-04 04:41:00,
2013-05-04 00:45:00,45.1,39.3,30.36,North,5,0.0,0.0,80,0.00,,,0.00,0.00,VWS V14.01,2013-05-04 04:45:00,
2013-05-04 00:46:00,45.0,39.2,30.36,North,5,0.0,0.0,80,0.00,,,0.00,,VWS V14.01,2013-05-04 04:46:00,
2013-05-04 00:50:00,45.0,39.5,30.36,North,5,0.0,0.0,81,0.00,,,0.00,,VWS V14.01,2013-05-04 04:50:00,
2013-05-04 00:55:00,44.8,39.7,30.36,North,5,0.0,0.0,82,0.00,,,0.00,,VWS V14.01,2013-05-04 04:55:00,
2013-05-04 01:00:00,44.5,39.7,30.36,North,5,0.0,0.0,83,0.00,,,0.00,,VWS V14.01,2013-05-04 05:00:00,
2013-05-04 01:05:00,44.4,39.6,30.36,North,5,0.0,0.0,83,0.00,,,0.00,,VWS V14.01,2013-05-04 05:05:00,
2013-05-04 01:10:00,44.2,39.4,30.36,North,5,0.0,0.0,83,0.00,,,0.00,,VWS V14.01,2013-05-04 05:10:00,
2013-05-04 01:15:00,44.1,39.3,30.36,North,5,0.0,0.0,83,0.00,,,0.00,,VWS V14.01,2013-05-04 05:15:00,
2013-05-04 01:20:00,44.0,39.5,30.36,North,5,0.0,0.0,84,0.00,,,0.00,,VWS V14.01,2013-05-04 05:20:00,
2013-05-04 01:25:00,43.8,39.3,30.36,North,5,0.0,0.0,84,0.00,,,0.00,,VWS V14.01,2013-05-04 05:25:00,
2013-05-04 01:30:00,43.7,39.2,30.35,North,5,0.0,0.0,84,0.00,,,0.00,,VWS V14.01,2013-05-04 05:30:00,
2013-05-04 01:35:00,43.5,39.3,30.35,North,5,0.0,0.0,85,0.00,,,0.00,,VWS V14.01,2013-05-04 05:35:00,
2013-05-04 01:40:00,43.4,39.2,30.35,North,5,0.0,0.0,85,0.00,,,0.00,,VWS V14.01,2013-05-04 05:40:00,
2013-05-04 01:45:00,43.2,39.0,30.35,North,5,0.0,0.0,85,0.00,,,0.00,,VWS V14.01,2013-05-04 05:45:00,
2013-05-04 01:50:00,43.1,38.9,30.35,North,5,0.0,0.0,85,0.00,,,0.00,,VWS V14.01,2013-05-04 05:50:00,
2013-05-04 01:55:00,43.0,39.1,30.35,North,5,0.0,0.0,86,0.00,,,0.00,,VWS V14.01,2013-05-04 05:55:00,
2013-05-04 02:00:00,43.0,39.1,30.34,North,5,0.0,0.0,86,0.00,,,0.00,,VWS V14.01,2013-05-04 06:00:00,
2013-05-04 02:05:00,42.8,38.9,30.34,North,5,0.0,0.0,86,0.00,,,0.00,,VWS V14.01,2013-05-04 06:05:00,
2013-05-04 02:10:00,42.8,38.9,30.34,North,5,0.0,0.0,86,0.00,,,0.00,,VWS V14.01,2013-05-04 06:10:00,
2013-05-04 02:15:00,42.7,38.8,30.34,North,5,0.0,0.0,86,0.00,,,0.00,,VWS V14.01,2013-05-04 06:15:00,
2013-05-04 02:20:00,42.7,39.1,30.34,North,5,0.0,0.0,87,0.00,,,0.00,,VWS V14.01,2013-05-04 06:20:00,
2013-05-04 02:25:00,42.5,38.9,30.34,North,5,0.0,0.0,87,0.00,,,0.00,,VWS V14.01,2013-05-04 06:25:00,
2013-05-04 02:30:00,42.5,38.9,30.33,North,5,0.0,0.0,87,0.00,,,0.00,,VWS V14.01,2013-05-04 06:30:00,
2013-05-04 02:35:00,42.4,38.8,30.33,North,5,0.0,0.0,87,0.00,,,0.00,,VWS V14.01,2013-05-04 06:35:00,
2013-05-04 02:40:00,42.2,38.6,30.33,North,5,0.0,0.0,87,0.00,,,0.00,,VWS V14.01,2013-05-04 06:40:00,
2013-05-04 02:45:00,42.1,38.5,30.33,North,5,0.0,0.0,87,0.00,,,0.00,,VWS V14.01,2013-05-04 06:45:00,
2013-05-04 02:50:00,42.1,38.5,30.33,North,5,0.0,0.0,87,0.00,,,0.00,,VWS V14.01,2013-05-04 06:50:00,
2013-05-04 02:55:00,42.0,38.7,30.33,North,5,0.0,0.0,88,0.00,,,0.00,,VWS V14.01,2013-05-04 06:55:00,
2013-05-04 03:00:00,41.8,38.5,30.32,North,5,0.0,0.0,88,0.00,,,0.00,,VWS V14.01,2013-05-04 07:00:00,
2013-05-04 03:05:00,41.8,38.5,30.32,North,5,0.0,0.0,88,0.00,,,0.00,,VWS V14.01,2013-05-04 07:05:00,
2013-05-04 03:10:00,41.7,38.4,30.32,North,5,0.0,0.0,88,0.00,,,0.00,,VWS V14.01,2013-05-04 07:10:00,
2013-05-04 03:15:00,41.5,38.2,30.32,North,5,0.0,0.0,88,0.00,,,0.00,,VWS V14.01,2013-05-04 07:15:00,
2013-05-04 03:20:00,41.5,38.2,30.32,North,5,0.0,0.0,88,0.00,,,0.00,,VWS V14.01,2013-05-04 07:20:00,
2013-05-04 03:25:00,41.4,38.1,30.32,North,5,0.0,0.0,88,0.00,,,0.00,,VWS V14.01,2013-05-04 07:25:00,
2013-05-04 03:30:00,41.4,38.4,30.32,North,5,0.0,0.0,89,0.00,,,0.00,,VWS V14.01,2013-05-04 07:30:00,
2013-05-04 03:35:00,41.2,38.2,30.32,North,5,0.0,0.0,89,0.00,,,0.00,,VWS V14.01,2013-05-04 07:35:00,
2013-05-04 03:40:00,41.2,38.2,30.32,North,5,0.0,0.0,89,0.00,,,0.00,,VWS V14.01,2013-05-04 07:40:00,
2013-05-04 03:45:00,41.1,38.1,30.32,North,5,0.0,0.0,89,0.00,,,0.00,,VWS V14.01,2013-05-04 07:45:00,
2013-05-04 03:50:00,41.1,38.1,30.32,North,5,0.0,0.0,89,0.00,,,0.00,,VWS V14.01,2013-05-04 07:50:00,
2013-05-04 03:55:00,41.0,38.0,30.32,North,5,0.0,0.0,89,0.00,,,0.00,,VWS V14.01,2013-05-04 07:55:00,
2013-05-04 04:00:00,40.8,37.8,30.32,North,5,0.0,0.0,89,0.00,,,0.00,,VWS V14.01,2013-05-04 08:00:00,
2013-05-04 04:05:00,40.8,37.8,30.32,North,5,0.0,0.0,89,0.00,,,0.00,,VWS V14.01,2013-05-04 08:05:00,
2013-05-04 04:10:00,40.7,37.7,30.32,North,5,0.0,0.0,89,0.00,,,0.00,,VWS V14.01,2013-05-04 08:10:00,
2013-05-04 04:15:00,40.5,37.5,30.32,North,5,0.0,0.0,89,0.00,,,0.00,,VWS V14.01,2013-05-04 08:15:00,
2013-05-04 04:20:00,40.5,37.5,30.32,North,5,0.0,0.0,89,0.00,,,0.00,,VWS V14.01,2013-05-04 08:20:00,
2013-05-04 04:25:00,40.4,37.4,30.32,North,5,0.0,0.0,89,0.00,,,0.00,,VWS V14.01,2013-05-04 08:25:00,
2013-05-04 04:30:00,40.4,37.4,30.31,North,5,0.0,0.0,89,0.00,,,0.00,,VWS V14.01,2013-05-04 08:30:00,
2013-05-04 04:35:00,40.4,37.4,30.31,North,5,0.0,0.0,89,0.00,,,0.00,,VWS V14.01,2013-05-04 08:35:00,
2013-05-04 04:40:00,40.2,37.2,30.31,North,5,0.0,0.0,89,0.00,,,0.00,,VWS V14.01,2013-05-04 08:40:00,
2013-05-04 04:45:00,40.2,37.5,30.31,North,5,0.0,0.0,90,0.00,,,0.00,,VWS V14.01,2013-05-04 08:45:00,
2013-05-04 04:50:00,40.1,37.4,30.31,North,5,0.0,0.0,90,0.00,,,0.00,,VWS V14.01,2013-05-04 08:50:00,
2013-05-04 04:55:00,40.1,37.4,30.31,North,5,0.0,0.0,90,0.00,,,0.00,,VWS V14.01,2013-05-04 08:55:00,
2013-05-04 05:00:00,40.0,37.3,30.31,North,5,0.0,0.0,90,0.00,,,0.00,,VWS V14.01,2013-05-04 09:00:00,
2013-05-04 05:05:00,40.0,37.3,30.31,North,5,0.0,0.0,90,0.00,,,0.00,,VWS V14.01,2013-05-04 09:05:00,
2013-05-04 05:10:00,39.8,36.8,30.31,North,5,0.0,0.0,89,0.00,,,0.00,,VWS V14.01,2013-05-04 09:10:00,
2013-05-04 05:15:00,39.7,36.7,30.31,North,5,0.0,0.0,89,0.00,,,0.00,,VWS V14.01,2013-05-04 09:15:00,
2013-05-04 05:20:00,39.7,37.0,30.31,North,5,0.0,0.0,90,0.00,,,0.00,,VWS V14.01,2013-05-04 09:20:00,
2013-05-04 05:25:00,39.7,37.0,30.31,North,5,0.0,0.0,90,0.00,,,0.00,,VWS V14.01,2013-05-04 09:25:00,
2013-05-04 05:30:00,39.5,36.8,30.31,North,5,0.0,0.0,90,0.00,,,0.00,,VWS V14.01,2013-05-04 09:30:00,
2013-05-04 05:35:00,39.5,36.8,30.31,North,5,0.0,0.0,90,0.00,,,0.00,,VWS V14.01,2013-05-04 09:35:00,
2013-05-04 05:40:00,39.5,36.8,30.31,North,5,0.0,0.0,90,0.00,,,0.00,,VWS V14.01,2013-05-04 09:40:00,
2013-05-04 05:45:00,39.5,36.8,30.31,North,5,0.0,0.0,90,0.00,,,0.00,,VWS V14.01,2013-05-04 09:45:00,
2013-05-04 05:50:00,39.4,36.7,30.31,North,5,0.0,0.0,90,0.00,,,0.00,,VWS V14.01,2013-05-04 09:50:00,
2013-05-04 05:55:00,39.4,36.7,30.31,North,5,0.0,0.0,90,0.00,,,0.00,,VWS V14.01,2013-05-04 09:55:00,
2013-05-04 06:00:00,39.2,36.5,30.31,North,5,0.0,0.0,90,0.00,,,0.00,,VWS V14.01,2013-05-04 10:00:00,
2013-05-04 06:05:00,39.1,36.4,30.31,North,5,0.0,0.0,90,0.00,,,0.00,,VWS V14.01,2013-05-04 10:05:00,
2013-05-04 06:10:00,39.0,36.3,30.31,North,5,0.0,0.0,90,0.00,,,0.00,,VWS V14.01,2013-05-04 10:10:00,
2013-05-04 06:15:00,38.8,36.1,30.31,North,5,0.0,0.0,90,0.00,,,0.00,,VWS V14.01,2013-05-04 10:15:00,
2013-05-04 06:20:00,38.8,36.1,30.31,North,5,0.0,0.0,90,0.00,,,0.00,,VWS V14.01,2013-05-04 10:20:00,
2013-05-04 06:25:00,38.8,36.1,30.31,North,5,0.0,0.0,90,0.00,,,0.00,,VWS V14.01,2013-05-04 10:25:00,
2013-05-04 06:30:00,38.8,36.4,30.31,North,5,0.0,0.0,91,0.00,,,0.00,,VWS V14.01,2013-05-04 10:30:00,
2013-05-04 06:35:00,38.8,36.4,30.31,North,5,0.0,0.0,91,0.00,,,0.00,,VWS V14.01,2013-05-04 10:35:00,
2013-05-04 06:40:00,39.0,36.6,30.31,North,5,0.0,0.0,91,0.00,,,0.00,,VWS V14.01,2013-05-04 10:40:00,
2013-05-04 06:45:00,39.1,37.0,30.31,North,5,0.0,0.0,92,0.00,,,0.00,,VWS V14.01,2013-05-04 10:45:00,
2013-05-04 06:50:00,39.4,37.3,30.31,North,5,0.0,1.0,92,0.00,,,0.00,,VWS V14.01,2013-05-04 10:50:00,
2013-05-04 06:56:00,40.1,38.0,30.31,North,5,0.0,2.0,92,0.00,,,0.00,,VWS V14.01,2013-05-04 10:56:00,
2013-05-04 07:00:00,40.4,38.3,30.32,North,5,0.0,2.0,92,0.00,,,0.00,149.00,VWS V14.01,2013-05-04 11:00:00,
2013-05-04 07:01:00,40.7,38.6,30.32,North,5,0.0,0.0,92,0.00,,,0.00,,VWS V14.01,2013-05-04 11:01:00,
2013-05-04 07:06:00,41.0,38.9,30.32,North,5,0.0,0.0,92,0.00,,,0.00,,VWS V14.01,2013-05-04 11:06:00,
2013-05-04 07:11:00,41.4,39.2,30.32,North,5,0.0,0.0,92,0.00,,,0.00,,VWS V14.01,2013-05-04 11:11:00,
2013-05-04 07:15:00,41.5,39.3,30.32,North,5,0.0,0.0,92,0.00,,,0.00,186.00,VWS V14.01,2013-05-04 11:15:00,
2013-05-04 07:16:00,41.7,39.5,30.32,North,5,0.0,0.0,92,0.00,,,0.00,,VWS V14.01,2013-05-04 11:16:00,
2013-05-04 07:21:00,42.0,39.6,30.32,North,5,0.0,1.0,91,0.00,,,0.00,,VWS V14.01,2013-05-04 11:21:00,
2013-05-04 07:26:00,42.2,39.8,30.32,North,9,0.0,2.0,91,0.00,,,0.00,,VWS V14.01,2013-05-04 11:26:00,
2013-05-04 07:30:00,42.4,40.0,30.32,North,9,0.0,2.0,91,0.00,,,0.00,229.00,VWS V14.01,2013-05-04 11:30:00,
2013-05-04 07:31:00,42.5,40.1,30.32,North,9,1.0,1.0,91,0.00,,,0.00,,VWS V14.01,2013-05-04 11:31:00,
2013-05-04 07:36:00,42.8,40.4,30.32,NNW,348,0.0,2.0,91,0.00,,,0.00,,VWS V14.01,2013-05-04 11:36:00,
2013-05-04 07:41:00,43.4,40.7,30.32,NNW,348,0.0,2.0,90,0.00,,,0.00,,VWS V14.01,2013-05-04 11:41:00,
2013-05-04 07:45:00,43.7,40.7,30.32,NNW,348,0.0,2.0,89,0.00,,,0.00,272.00,VWS V14.01,2013-05-04 11:45:00,
2013-05-04 07:46:00,43.8,40.5,30.32,NNW,348,0.0,0.0,88,0.00,,,0.00,,VWS V14.01,2013-05-04 11:46:00,
2013-05-04 07:51:00,44.2,40.6,30.32,NNW,348,0.0,0.0,87,0.00,,,0.00,,VWS V14.01,2013-05-04 11:51:00,
2013-05-04 07:56:00,44.7,40.8,30.32,NNW,348,0.0,0.0,86,0.00,,,0.00,,VWS V14.01,2013-05-04 11:56:00,
2013-05-04 08:00:00,45.1,40.9,30.32,NNW,348,0.0,1.0,85,0.00,,,0.00,315.00,VWS V14.01,2013-05-04 12:00:00,
2013-05-04 08:01:00,45.3,40.8,30.32,NNW,348,0.0,1.0,84,0.00,,,0.00,,VWS V14.01,2013-05-04 12:01:00,
2013-05-04 08:06:00,46.0,40.8,30.32,NNW,347,0.0,1.0,82,0.00,,,0.00,,VWS V14.01,2013-05-04 12:06:00,
2013-05-04 08:11:00,46.6,41.1,30.32,NW,304,0.0,3.0,81,0.00,,,0.00,,VWS V14.01,2013-05-04 12:11:00,
2013-05-04 08:15:00,46.7,40.9,30.32,NW,304,0.0,3.0,80,0.00,,,0.00,367.00,VWS V14.01,2013-05-04 12:15:00,
2013-05-04 08:16:00,47.0,41.2,30.32,NW,304,0.0,0.0,80,0.00,,,0.00,,VWS V14.01,2013-05-04 12:16:00,
2013-05-04 08:21:00,47.5,41.3,30.32,WNW,298,0.0,2.0,79,0.00,,,0.00,,VWS V14.01,2013-05-04 12:21:00,
2013-05-04 08:26:00,48.4,41.5,30.32,WNW,298,0.0,2.0,77,0.00,,,0.00,,VWS V14.01,2013-05-04 12:26:00,
2013-05-04 08:30:00,48.7,41.8,30.32,WNW,298,0.0,2.0,77,0.00,,,0.00,425.00,VWS V14.01,2013-05-04 12:30:00,
2013-05-04 08:31:00,48.8,41.6,30.32,WNW,298,0.0,0.0,76,0.00,,,0.00,,VWS V14.01,2013-05-04 12:31:00,
2013-05-04 08:36:00,49.3,41.7,30.32,WNW,298,0.0,2.0,75,0.00,,,0.00,,VWS V14.01,2013-05-04 12:36:00,
2013-05-04 08:41:00,49.8,41.9,30.32,WNW,288,1.0,2.0,74,0.00,,,0.00,,VWS V14.01,2013-05-04 12:41:00,
2013-05-04 08:45:00,50.3,42.0,30.32,WNW,288,0.0,2.0,73,0.00,,,0.00,478.00,VWS V14.01,2013-05-04 12:45:00,
2013-05-04 08:46:00,50.7,42.0,30.32,WNW,288,0.0,0.0,72,0.00,,,0.00,,VWS V14.01,2013-05-04 12:46:00,
2013-05-04 08:51:00,51.9,42.1,30.32,WNW,288,0.0,0.0,69,0.00,,,0.00,,VWS V14.01,2013-05-04 12:51:00,
2013-05-04 08:56:00,52.7,42.5,30.32,WNW,288,0.0,0.0,68,0.00,,,0.00,,VWS V14.01,2013-05-04 12:56:00,
2013-05-04 09:00:00,53.0,42.3,30.32,WNW,288,0.0,1.0,67,0.00,,,0.00,526.00,VWS V14.01,2013-05-04 13:00:00,
2013-05-04 09:01:00,53.5,42.4,30.32,WNW,288,0.0,0.0,66,0.00,,,0.00,,VWS V14.01,2013-05-04 13:01:00,
2013-05-04 09:03:00,53.8,42.3,30.32,North,9,0.0,1.0,65,0.00,,,0.00,,VWS V14.01,2013-05-04 13:03:00,
2013-05-04 09:08:00,55.0,42.2,30.32,North,9,2.0,5.0,62,0.00,,,0.00,,VWS V14.01,2013-05-04 13:08:00,
2013-05-04 09:13:00,55.5,41.9,30.32,NNE,20,2.0,6.0,60,0.00,,,0.00,,VWS V14.01,2013-05-04 13:13:00,
2013-05-04 09:15:00,55.5,41.9,30.32,NNE,16,0.0,6.0,60,0.00,,,0.00,573.00,VWS V14.01,2013-05-04 13:15:00,
2013-05-04 09:18:00,55.9,42.2,30.32,NNE,22,0.0,6.0,60,0.00,,,0.00,,VWS V14.01,2013-05-04 13:18:00,
2013-05-04 09:23:00,56.5,42.4,30.32,NNE,16,0.0,6.0,59,0.00,,,0.00,,VWS V14.01,2013-05-04 13:23:00,
2013-05-04 09:28:00,57.5,42.8,30.31,NNE,28,0.0,6.0,58,0.00,,,0.00,,VWS V14.01,2013-05-04 13:28:00,
2013-05-04 09:30:00,57.7,42.6,30.31,NNE,27,0.0,6.0,57,0.00,,,0.00,617.00,VWS V14.01,2013-05-04 13:30:00,
2013-05-04 09:33:00,58.2,42.6,30.31,NE,36,4.0,6.0,56,0.00,,,0.00,,VWS V14.01,2013-05-04 13:33:00,
2013-05-04 09:38:00,58.0,41.9,30.31,North,355,0.0,7.0,55,0.00,,,0.00,,VWS V14.01,2013-05-04 13:38:00,
2013-05-04 09:43:00,57.9,41.8,30.31,West,277,0.0,7.0,55,0.00,,,0.00,,VWS V14.01,2013-05-04 13:43:00,
2013-05-04 09:45:00,58.2,42.1,30.31,West,277,0.0,7.0,55,0.00,,,0.00,663.00,VWS V14.01,2013-05-04 13:45:00,
2013-05-04 09:48:00,59.5,41.9,30.31,NE,34,3.0,7.0,52,0.00,,,0.00,,VWS V14.01,2013-05-04 13:48:00,
2013-05-04 09:53:00,59.5,41.4,30.31,NNW,338,5.0,9.0,51,0.00,,,0.00,,VWS V14.01,2013-05-04 13:53:00,
2013-05-04 09:58:00,60.3,37.7,30.31,NE,55,7.0,9.0,43,0.00,,,0.00,,VWS V14.01,2013-05-04 13:58:00,
2013-05-04 10:00:00,60.3,38.3,30.31,NE,46,7.0,10.0,44,0.00,,,0.00,703.00,VWS V14.01,2013-05-04 14:00:00,
2013-05-04 10:03:00,60.9,37.7,30.31,NE,40,8.0,12.0,42,0.00,,,0.00,,VWS V14.01,2013-05-04 14:03:00,
2013-05-04 10:08:00,61.1,36.0,30.31,NNE,32,5.0,12.0,39,0.00,,,0.00,,VWS V14.01,2013-05-04 14:08:00,
2013-05-04 10:13:00,62.2,34.9,30.31,ENE,74,6.0,12.0,36,0.00,,,0.00,,VWS V14.01,2013-05-04 14:13:00,
2013-05-04 10:15:00,62.2,33.5,30.31,NE,53,5.0,12.0,34,0.00,,,0.00,742.00,VWS V14.01,2013-05-04 14:15:00,
2013-05-04 10:18:00,61.9,34.0,30.31,NE,54,2.0,10.0,35,0.00,,,0.00,,VWS V14.01,2013-05-04 14:18:00,
2013-05-04 10:23:00,62.5,33.8,30.31,SE,141,0.0,10.0,34,0.00,,,0.00,,VWS V14.01,2013-05-04 14:23:00,
2013-05-04 10:28:00,63.6,35.5,30.31,North,10,1.0,10.0,35,0.00,,,0.00,,VWS V14.01,2013-05-04 14:28:00,
2013-05-04 10:30:00,63.8,35.7,30.31,North,11,0.0,10.0,35,0.00,,,0.00,779.00,VWS V14.01,2013-05-04 14:30:00,
2013-05-04 10:33:00,63.6,34.0,30.31,ESE,105,0.0,4.0,33,0.00,,,0.00,,VWS V14.01,2013-05-04 14:33:00,
2013-05-04 10:38:00,63.3,36.6,30.31,SSW,202,0.0,9.0,37,0.00,,,0.00,,VWS V14.01,2013-05-04 14:38:00,
2013-05-04 10:43:00,64.1,38.0,30.30,NNE,31,5.0,9.0,38,0.00,,,0.00,,VWS V14.01,2013-05-04 14:43:00,
2013-05-04 10:45:00,64.1,35.2,30.30,NNE,31,5.0,9.0,34,0.00,,,0.00,812.00,VWS V14.01,2013-05-04 14:45:00,
2013-05-04 10:48:00,64.1,35.2,30.30,South,180,14.0,14.0,34,0.00,,,0.00,,VWS V14.01,2013-05-04 14:48:00,
2013-05-04 10:53:00,63.9,35.0,30.30,SSW,207,0.0,14.0,34,0.00,,,0.00,,VWS V14.01,2013-05-04 14:53:00,
2013-05-04 10:58:00,64.1,36.6,30.30,East,98,5.0,14.0,36,0.00,,,0.00,,VWS V14.01,2013-05-04 14:58:00,
2013-05-04 11:00:00,63.8,35.7,30.30,NE,44,4.0,14.0,35,0.00,,,0.00,846.00,VWS V14.01,2013-05-04 15:00:00,
2013-05-04 11:03:00,63.4,35.3,30.30,NE,40,0.0,8.0,35,0.00,,,0.00,,VWS V14.01,2013-05-04 15:03:00,
2013-05-04 11:08:00,64.4,35.5,30.30,ESE,105,4.0,8.0,34,0.00,,,0.00,,VWS V14.01,2013-05-04 15:08:00,
2013-05-04 11:13:00,64.4,36.9,30.30,NNE,26,6.0,10.0,36,0.00,,,0.00,,VWS V14.01,2013-05-04 15:13:00,
2013-05-04 11:15:00,64.2,38.8,30.29,NE,54,0.0,10.0,39,0.00,,,0.00,872.00,VWS V14.01,2013-05-04 15:15:00,
2013-05-04 11:18:00,63.8,36.4,30.29,NE,52,9.0,16.0,36,0.00,,,0.00,,VWS V14.01,2013-05-04 15:18:00,
2013-05-04 11:23:00,63.8,37.0,30.29,NE,55,8.0,16.0,37,0.00,,,0.00,,VWS V14.01,2013-05-04 15:23:00,
2013-05-04 11:28:00,63.6,36.2,30.29,ENE,57,8.0,16.0,36,0.00,,,0.00,,VWS V14.01,2013-05-04 15:28:00,
2013-05-04 11:30:00,63.6,37.5,30.29,NE,42,6.0,16.0,38,0.00,,,0.00,891.00,VWS V14.01,2013-05-04 15:30:00,
2013-05-04 11:33:00,64.9,39.4,30.29,SSW,202,4.0,8.0,39,0.00,,,0.00,,VWS V14.01,2013-05-04 15:33:00,
2013-05-04 11:38:00,66.2,37.0,30.29,ESE,108,0.0,8.0,34,0.00,,,0.00,,VWS V14.01,2013-05-04 15:38:00,
2013-05-04 11:43:00,66.0,36.8,30.29,NNE,24,0.0,8.0,34,0.00,,,0.00,,VWS V14.01,2013-05-04 15:43:00,
2013-05-04 11:45:00,65.9,36.0,30.29,SE,130,0.0,8.0,33,0.00,,,0.00,916.00,VWS V14.01,2013-05-04 15:45:00,
2013-05-04 11:48:00,66.0,37.6,30.29,NNE,30,5.0,8.0,35,0.00,,,0.00,,VWS V14.01,2013-05-04 15:48:00,
2013-05-04 11:53:00,65.7,35.8,30.29,ENE,61,0.0,20.0,33,0.00,,,0.00,,VWS V14.01,2013-05-04 15:53:00,
2013-05-04 11:58:00,66.5,38.0,30.29,NE,39,1.0,20.0,35,0.00,,,0.00,,VWS V14.01,2013-05-04 15:58:00,
2013-05-04 12:00:00,66.7,36.7,30.28,ENE,74,7.0,20.0,33,0.00,,,0.00,937.00,VWS V14.01,2013-05-04 16:00:00,
2013-05-04 12:03:00,65.7,38.7,30.28,ENE,72,8.0,14.0,37,0.00,,,0.00,,VWS V14.01,2013-05-04 16:03:00,
2013-05-04 12:08:00,66.0,39.0,30.28,NNE,17,4.0,14.0,37,0.00,,,0.00,,VWS V14.01,2013-05-04 16:08:00,
2013-05-04 12:13:00,67.2,37.9,30.28,NE,53,0.0,14.0,34,0.00,,,0.00,,VWS V14.01,2013-05-04 16:13:00,
2013-05-04 12:15:00,67.3,34.8,30.28,NNE,30,1.0,14.0,30,0.00,,,0.00,951.00,VWS V14.01,2013-05-04 16:15:00,
2013-05-04 12:18:00,67.2,34.8,30.28,ESE,113,0.0,14.0,30,0.00,,,0.00,,VWS V14.01,2013-05-04 16:18:00,
2013-05-04 12:23:00,67.8,34.4,30.28,NNE,32,3.0,14.0,29,0.00,,,0.00,,VWS V14.01,2013-05-04 16:23:00,
2013-05-04 12:28:00,67.8,38.4,30.28,NE,46,7.0,14.0,34,0.00,,,0.00,,VWS V14.01,2013-05-04 16:28:00,
2013-05-04 12:30:00,67.0,36.2,30.27,NE,39,6.0,14.0,32,0.00,,,0.00,953.00,VWS V14.01,2013-05-04 16:30:00,
2013-05-04 12:33:00,67.2,37.2,30.27,NNE,28,6.0,10.0,33,0.00,,,0.00,,VWS V14.01,2013-05-04 16:33:00,
2013-05-04 12:38:00,67.7,35.2,30.27,NE,53,7.0,13.0,30,0.00,,,0.00,,VWS V14.01,2013-05-04 16:38:00,
2013-05-04 12:43:00,67.8,34.4,30.27,NNE,20,0.0,13.0,29,0.00,,,0.00,,VWS V14.01,2013-05-04 16:43:00,
2013-05-04 12:45:00,68.0,32.8,30.27,SSW,198,9.0,13.0,27,0.00,,,0.00,970.00,VWS V14.01,2013-05-04 16:45:00,
2013-05-04 12:48:00,68.0,33.7,30.27,SE,142,5.0,19.0,28,0.00,,,0.00,,VWS V14.01,2013-05-04 16:48:00,
2013-05-04 12:53:00,68.2,33.0,30.27,ESE,120,7.0,19.0,27,0.00,,,0.00,,VWS V14.01,2013-05-04 16:53:00,
2013-05-04 12:58:00,67.8,35.3,30.27,NE,42,6.0,19.0,30,0.00,,,0.00,,VWS V14.01,2013-05-04 16:58:00,
2013-05-04 13:00:00,67.5,35.8,30.26,NE,40,15.0,19.0,31,0.00,,,0.00,963.00,VWS V14.01,2013-05-04 17:00:00,
2013-05-04 13:03:00,66.8,36.8,30.26,ENE,71,7.0,15.0,33,0.00,,,0.00,,VWS V14.01,2013-05-04 17:03:00,
2013-05-04 13:08:00,69.2,34.7,30.26,ENE,64,1.0,15.0,28,0.00,,,0.00,,VWS V14.01,2013-05-04 17:08:00,
2013-05-04 13:13:00,68.5,33.2,30.26,SW,225,1.0,15.0,27,0.00,,,0.00,,VWS V14.01,2013-05-04 17:13:00,
2013-05-04 13:15:00,68.3,34.0,30.26,South,189,7.0,15.0,28,0.00,,,0.00,958.00,VWS V14.01,2013-05-04 17:15:00,
2013-05-04 13:18:00,68.0,33.7,30.26,NE,35,9.0,15.0,28,0.00,,,0.00,,VWS V14.01,2013-05-04 17:18:00,
2013-05-04 13:23:00,69.2,37.3,30.26,NE,51,0.0,15.0,31,0.00,,,0.00,,VWS V14.01,2013-05-04 17:23:00,
2013-05-04 13:28:00,70.0,33.6,30.26,SE,139,6.0,15.0,26,0.00,,,0.00,,VWS V14.01,2013-05-04 17:28:00,
2013-05-04 13:30:00,69.5,33.1,30.26,SSE,148,4.0,15.0,26,0.00,,,0.00,951.00,VWS V14.01,2013-05-04 17:30:00,
2013-05-04 13:33:00,69.3,35.7,30.26,East,100,0.0,11.0,29,0.00,,,0.00,,VWS V14.01,2013-05-04 17:33:00,
2013-05-04 13:38:00,69.5,33.1,30.26,SE,132,0.0,11.0,26,0.00,,,0.00,,VWS V14.01,2013-05-04 17:38:00,
2013-05-04 13:43:00,69.0,33.7,30.26,WSW,244,5.0,11.0,27,0.00,,,0.00,,VWS V14.01,2013-05-04 17:43:00,
2013-05-04 13:45:00,69.2,33.8,30.25,SSE,156,0.0,11.0,27,0.00,,,0.00,954.00,VWS V14.01,2013-05-04 17:45:00,
2013-05-04 13:48:00,70.8,33.3,30.25,SE,131,6.0,10.0,25,0.00,,,0.00,,VWS V14.01,2013-05-04 17:48:00,
2013-05-04 13:53:00,69.0,33.7,30.25,WSW,247,11.0,12.0,27,0.00,,,0.00,,VWS V14.01,2013-05-04 17:53:00,
2013-05-04 13:58:00,69.2,35.6,30.25,NE,44,9.0,12.0,29,0.00,,,0.00,,VWS V14.01,2013-05-04 17:58:00,
2013-05-04 14:00:00,68.5,32.3,30.25,NE,34,5.0,12.0,26,0.00,,,0.00,939.00,VWS V14.01,2013-05-04 18:00:00,
2013-05-04 14:03:00,68.7,34.3,30.25,East,83,10.0,14.0,28,0.00,,,0.00,,VWS V14.01,2013-05-04 18:03:00,
2013-05-04 14:08:00,69.0,33.7,30.25,SSW,192,0.0,14.0,27,0.00,,,0.00,,VWS V14.01,2013-05-04 18:08:00,
2013-05-04 14:13:00,69.2,32.9,30.25,West,271,4.0,14.0,26,0.00,,,0.00,,VWS V14.01,2013-05-04 18:13:00,
2013-05-04 14:15:00,69.5,34.1,30.25,ENE,68,4.0,14.0,27,0.00,,,0.00,918.00,VWS V14.01,2013-05-04 18:15:00,
2013-05-04 14:18:00,69.2,32.9,30.25,ENE,62,10.0,10.0,26,0.00,,,0.00,,VWS V14.01,2013-05-04 18:18:00,
2013-05-04 14:23:00,69.3,34.8,30.25,ENE,78,0.0,11.0,28,0.00,,,0.00,,VWS V14.01,2013-05-04 18:23:00,
2013-05-04 14:28:00,70.0,33.6,30.25,East,86,7.0,11.0,26,0.00,,,0.00,,VWS V14.01,2013-05-04 18:28:00,
2013-05-04 14:30:00,70.2,34.7,30.24,East,87,6.0,11.0,27,0.00,,,0.00,898.00,VWS V14.01,2013-05-04 18:30:00,
2013-05-04 14:33:00,69.5,33.1,30.24,NNE,30,10.0,10.0,26,0.00,,,0.00,,VWS V14.01,2013-05-04 18:33:00,
2013-05-04 14:38:00,68.2,33.9,30.24,NE,37,0.0,11.0,28,0.00,,,0.00,,VWS V14.01,2013-05-04 18:38:00,
2013-05-04 14:43:00,69.0,33.7,30.24,NNW,348,5.0,13.0,27,0.00,,,0.00,,VWS V14.01,2013-05-04 18:43:00,
2013-05-04 14:45:00,69.2,33.8,30.24,ENE,57,2.0,13.0,27,0.00,,,0.00,877.00,VWS V14.01,2013-05-04 18:45:00,
2013-05-04 14:48:00,69.0,32.7,30.24,NE,40,0.0,10.0,26,0.00,,,0.00,,VWS V14.01,2013-05-04 18:48:00,
2013-05-04 14:53:00,70.3,33.8,30.24,ENE,62,8.0,12.0,26,0.00,,,0.00,,VWS V14.01,2013-05-04 18:53:00,
2013-05-04 14:58:00,70.0,33.6,30.24,East,89,5.0,12.0,26,0.00,,,0.00,,VWS V14.01,2013-05-04 18:58:00,
2013-05-04 15:00:00,70.2,33.7,30.23,SE,142,0.0,12.0,26,0.00,,,0.00,847.00,VWS V14.01,2013-05-04 19:00:00,
2013-05-04 15:03:00,71.4,34.8,30.23,North,355,0.0,1.0,26,0.00,,,0.00,,VWS V14.01,2013-05-04 19:03:00,
2013-05-04 15:08:00,71.5,33.9,30.23,South,191,6.0,8.0,25,0.00,,,0.00,,VWS V14.01,2013-05-04 19:08:00,
2013-05-04 15:13:00,70.8,33.3,30.23,WSW,248,1.0,10.0,25,0.00,,,0.00,,VWS V14.01,2013-05-04 19:13:00,
2013-05-04 15:15:00,70.3,33.8,30.23,WNW,287,4.0,10.0,26,0.00,,,0.00,819.00,VWS V14.01,2013-05-04 19:15:00,
2013-05-04 15:18:00,70.7,34.2,30.23,SW,223,0.0,6.0,26,0.00,,,0.00,,VWS V14.01,2013-05-04 19:18:00,
2013-05-04 15:23:00,71.7,33.0,30.23,ESE,106,10.0,10.0,24,0.00,,,0.00,,VWS V14.01,2013-05-04 19:23:00,
2013-05-04 15:28:00,70.0,33.6,30.23,NE,35,4.0,10.0,26,0.00,,,0.00,,VWS V14.01,2013-05-04 19:28:00,
2013-05-04 15:30:00,71.0,34.4,30.22,NNE,33,0.0,10.0,26,0.00,,,0.00,788.00,VWS V14.01,2013-05-04 19:30:00,
2013-05-04 15:33:00,71.5,33.9,30.22,South,185,0.0,0.0,25,0.00,,,0.00,,VWS V14.01,2013-05-04 19:33:00,
2013-05-04 15:38:00,72.2,34.5,30.22,WNW,298,0.0,1.0,25,0.00,,,0.00,,VWS V14.01,2013-05-04 19:38:00,
2013-05-04 15:43:00,72.4,35.6,30.22,ENE,57,8.0,8.0,26,0.00,,,0.00,,VWS V14.01,2013-05-04 19:43:00,
2013-05-04 15:45:00,72.4,33.6,30.21,SE,129,2.0,9.0,24,0.00,,,0.00,754.00,VWS V14.01,2013-05-04 19:45:00,
2013-05-04 15:48:00,72.2,35.4,30.21,NE,44,7.0,15.0,26,0.00,,,0.00,,VWS V14.01,2013-05-04 19:48:00,
2013-05-04 15:53:00,72.6,35.8,30.21,ENE,57,0.0,15.0,26,0.00,,,0.00,,VWS V14.01,2013-05-04 19:53:00,
2013-05-04 15:58:00,73.2,36.3,30.21,NE,49,0.0,15.0,26,0.00,,,0.00,,VWS V14.01,2013-05-04 19:58:00,
2013-05-04 16:00:00,73.4,33.4,30.21,ESE,115,5.0,15.0,23,0.00,,,0.00,714.00,VWS V14.01,2013-05-04 20:00:00,
2013-05-04 16:03:00,73.6,33.5,30.21,SW,232,4.0,7.0,23,0.00,,,0.00,,VWS V14.01,2013-05-04 20:03:00,
2013-05-04 16:08:00,72.9,33.0,30.21,West,277,0.0,8.0,23,0.00,,,0.00,,VWS V14.01,2013-05-04 20:08:00,
2013-05-04 16:13:00,73.2,33.2,30.21,SE,137,1.0,8.0,23,0.00,,,0.00,,VWS V14.01,2013-05-04 20:13:00,
2013-05-04 16:15:00,73.2,33.2,30.21,South,189,0.0,8.0,23,0.00,,,0.00,675.00,VWS V14.01,2013-05-04 20:15:00,
2013-05-04 16:17:00,73.4,33.4,30.21,SW,223,0.0,5.0,23,0.00,,,0.00,,VWS V14.01,2013-05-04 20:17:00,
2013-05-04 16:22:00,73.2,34.3,30.21,NE,52,4.0,8.0,24,0.00,,,0.00,,VWS V14.01,2013-05-04 20:22:00,
2013-05-04 16:27:00,72.9,34.0,30.21,NNE,31,0.0,8.0,24,0.00,,,0.00,,VWS V14.01,2013-05-04 20:27:00,
2013-05-04 16:30:00,72.9,33.0,30.20,SSW,202,0.0,8.0,23,0.00,,,0.00,635.00,VWS V14.01,2013-05-04 20:30:00,
2013-05-04 16:32:00,72.9,33.0,30.20,SSW,209,0.0,9.0,23,0.00,,,0.00,,VWS V14.01,2013-05-04 20:32:00,
2013-05-04 16:37:00,72.9,33.0,30.20,SE,128,0.0,9.0,23,0.00,,,0.00,,VWS V14.01,2013-05-04 20:37:00,
2013-05-04 16:42:00,73.6,34.6,30.20,WSW,254,0.0,9.0,24,0.00,,,0.00,,VWS V14.01,2013-05-04 20:42:00,
2013-05-04 16:45:00,73.6,33.5,30.20,WNW,290,0.0,9.0,23,0.00,,,0.00,589.00,VWS V14.01,2013-05-04 20:45:00,
2013-05-04 16:47:00,73.4,34.5,30.20,SSW,202,10.0,10.0,24,0.00,,,0.00,,VWS V14.01,2013-05-04 20:47:00,
2013-05-04 16:52:00,72.6,32.7,30.20,SW,230,8.0,11.0,23,0.00,,,0.00,,VWS V14.01,2013-05-04 20:52:00,
2013-05-04 16:57:00,72.0,33.3,30.20,NNW,339,0.0,11.0,24,0.00,,,0.00,,VWS V14.01,2013-05-04 20:57:00,
2013-05-04 17:00:00,72.2,33.4,30.20,NNW,340,0.0,11.0,24,0.00,,,0.00,540.00,VWS V14.01,2013-05-04 21:00:00,
2013-05-04 17:03:00,73.1,34.2,30.20,NNW,340,0.0,0.0,24,0.00,,,0.00,,VWS V14.01,2013-05-04 21:03:00,
2013-05-04 17:08:00,73.2,34.3,30.20,WNW,300,5.0,10.0,24,0.00,,,0.00,,VWS V14.01,2013-05-04 21:08:00,
2013-05-04 17:13:00,72.2,33.4,30.20,West,278,6.0,10.0,24,0.00,,,0.00,,VWS V14.01,2013-05-04 21:13:00,
2013-05-04 17:15:00,72.2,34.5,30.19,West,271,10.0,10.0,25,0.00,,,0.00,492.00,VWS V14.01,2013-05-04 21:15:00,
2013-05-04 17:17:00,71.9,34.2,30.19,WSW,255,6.0,10.0,25,0.00,,,0.00,,VWS V14.01,2013-05-04 21:17:00,
2013-05-04 17:22:00,71.5,33.9,30.19,West,279,4.0,12.0,25,0.00,,,0.00,,VWS V14.01,2013-05-04 21:22:00,
2013-05-04 17:27:00,71.5,33.9,30.19,SW,235,0.0,12.0,25,0.00,,,0.00,,VWS V14.01,2013-05-04 21:27:00,
2013-05-04 17:30:00,71.7,33.0,30.19,SW,223,0.0,12.0,24,0.00,,,0.00,439.00,VWS V14.01,2013-05-04 21:30:00,
2013-05-04 17:32:00,72.0,34.3,30.19,West,262,7.0,8.0,25,0.00,,,0.00,,VWS V14.01,2013-05-04 21:32:00,
2013-05-04 17:37:00,71.9,34.2,30.19,West,262,10.0,11.0,25,0.00,,,0.00,,VWS V14.01,2013-05-04 21:37:00,
2013-05-04 17:42:00,71.2,34.6,30.19,WNW,299,0.0,13.0,26,0.00,,,0.00,,VWS V14.01,2013-05-04 21:42:00,
2013-05-04 17:45:00,71.0,35.4,30.19,West,273,15.0,15.0,27,0.00,,,0.00,390.00,VWS V14.01,2013-05-04 21:45:00,
2013-05-04 17:47:00,70.7,36.0,30.19,NE,52,4.0,16.0,28,0.00,,,0.00,,VWS V14.01,2013-05-04 21:47:00,
2013-05-04 17:52:00,70.8,37.9,30.19,West,275,5.0,16.0,30,0.00,,,0.00,,VWS V14.01,2013-05-04 21:52:00,
2013-05-04 17:57:00,70.5,38.4,30.19,West,277,0.0,16.0,31,0.00,,,0.00,,VWS V14.01,2013-05-04 21:57:00,
2013-05-04 18:00:00,70.5,38.4,30.19,NNW,337,2.0,16.0,31,0.00,,,0.00,341.00,VWS V14.01,2013-05-04 22:00:00,
2013-05-04 18:02:00,69.8,37.8,30.19,WSW,257,7.0,15.0,31,0.00,,,0.00,,VWS V14.01,2013-05-04 22:02:00,
2013-05-04 18:07:00,69.3,39.8,30.19,NE,38,1.0,15.0,34,0.00,,,0.00,,VWS V14.01,2013-05-04 22:07:00,
2013-05-04 18:12:00,69.3,39.0,30.19,NNW,327,0.0,15.0,33,0.00,,,0.00,,VWS V14.01,2013-05-04 22:12:00,
2013-05-04 18:15:00,69.3,39.8,30.20,South,190,3.0,15.0,34,0.00,,,0.00,288.00,VWS V14.01,2013-05-04 22:15:00,
2013-05-04 18:18:00,69.0,39.5,30.20,ENE,63,8.0,11.0,34,0.00,,,0.00,,VWS V14.01,2013-05-04 22:18:00,
2013-05-04 18:22:00,68.2,40.2,30.20,ENE,63,0.0,15.0,36,0.00,,,0.00,,VWS V14.01,2013-05-04 22:22:00,
2013-05-04 18:27:00,67.8,40.6,30.20,West,279,5.0,15.0,37,0.00,,,0.00,,VWS V14.01,2013-05-04 22:27:00,
2013-05-04 18:30:00,67.7,40.5,30.20,NE,50,8.0,15.0,37,0.00,,,0.00,241.00,VWS V14.01,2013-05-04 22:30:00,
2013-05-04 18:32:00,67.3,39.5,30.20,ENE,58,12.0,12.0,36,0.00,,,0.00,,VWS V14.01,2013-05-04 22:32:00,
2013-05-04 18:37:00,66.7,39.6,30.20,ENE,74,8.0,14.0,37,0.00,,,0.00,,VWS V14.01,2013-05-04 22:37:00,
2013-05-04 18:42:00,65.9,40.3,30.20,ESE,105,8.0,14.0,39,0.00,,,0.00,,VWS V14.01,2013-05-04 22:42:00,
2013-05-04 18:45:00,65.7,40.1,30.20,ENE,72,6.0,14.0,39,0.00,,,0.00,195.00,VWS V14.01,2013-05-04 22:45:00,
2013-05-04 18:47:00,65.5,39.9,30.20,NNE,23,6.0,9.0,39,0.00,,,0.00,,VWS V14.01,2013-05-04 22:47:00,
2013-05-04 18:52:00,65.2,40.3,30.20,ENE,68,7.0,11.0,40,0.00,,,0.00,,VWS V14.01,2013-05-04 22:52:00,
2013-05-04 18:57:00,64.7,39.8,30.20,NE,56,0.0,11.0,40,0.00,,,0.00,,VWS V14.01,2013-05-04 22:57:00,
2013-05-04 19:00:00,64.7,39.8,30.21,NE,56,0.0,11.0,40,0.00,,,0.00,149.00,VWS V14.01,2013-05-04 23:00:00,
2013-05-04 19:02:00,64.6,39.8,30.21,South,177,0.0,5.0,40,0.00,,,0.00,,VWS V14.01,2013-05-04 23:02:00,
2013-05-04 19:07:00,64.6,41.0,30.21,NE,40,4.0,5.0,42,0.00,,,0.00,,VWS V14.01,2013-05-04 23:07:00,
2013-05-04 19:12:00,64.2,40.0,30.21,ENE,65,0.0,7.0,41,0.00,,,0.00,,VWS V14.01,2013-05-04 23:12:00,
2013-05-04 19:15:00,64.2,40.0,30.21,ENE,65,0.0,7.0,41,0.00,,,0.00,104.00,VWS V14.01,2013-05-04 23:15:00,
2013-05-04 19:17:00,64.1,39.9,30.21,NNE,28,0.0,1.0,41,0.00,,,0.00,,VWS V14.01,2013-05-04 23:17:00,
2013-05-04 19:22:00,63.6,40.1,30.21,SW,216,0.0,5.0,42,0.00,,,0.00,,VWS V14.01,2013-05-04 23:22:00,
2013-05-04 19:27:00,63.0,40.2,30.21,WNW,296,0.0,7.0,43,0.00,,,0.00,,VWS V14.01,2013-05-04 23:27:00,
2013-05-04 19:30:00,62.8,40.0,30.21,ENE,60,0.0,7.0,43,0.00,,,0.00,23.00,VWS V14.01,2013-05-04 23:30:00,
2013-05-04 19:32:00,62.5,39.7,30.21,ESE,117,0.0,0.0,43,0.00,,,0.00,,VWS V14.01,2013-05-04 23:32:00,
2013-05-04 19:37:00,62.0,40.4,30.21,South,190,0.0,7.0,45,0.00,,,0.00,,VWS V14.01,2013-05-04 23:37:00,
2013-05-04 19:42:00,61.4,39.9,30.21,NE,37,6.0,13.0,45,0.00,,,0.00,,VWS V14.01,2013-05-04 23:42:00,
2013-05-04 19:45:00,61.2,40.3,30.22,East,84,5.0,13.0,46,0.00,,,0.00,14.00,VWS V14.01,2013-05-04 23:45:00,
2013-05-04 19:47:00,60.9,40.0,30.22,NE,40,0.0,8.0,46,0.00,,,0.00,,VWS V14.01,2013-05-04 23:47:00,
2013-05-04 19:52:00,60.4,40.1,30.22,ESE,115,9.0,10.0,47,0.00,,,0.00,,VWS V14.01,2013-05-04 23:52:00,
2013-05-04 19:57:00,60.0,40.3,30.22,ESE,118,0.0,11.0,48,0.00,,,0.00,,VWS V14.01,2013-05-04 23:57:00,
2013-05-04 20:00:00,59.8,40.1,30.23,ESE,109,8.0,11.0,48,0.00,,,0.00,5.00,VWS V14.01,2013-05-05 00:00:00,
2013-05-04 20:02:00,59.4,40.2,30.23,SE,130,0.0,13.0,49,0.00,,,0.00,,VWS V14.01,2013-05-05 00:02:00,
2013-05-04 20:07:00,59.1,40.5,30.23,East,81,0.0,13.0,50,0.00,,,0.00,,VWS V14.01,2013-05-05 00:07:00,
2013-05-04 20:12:00,58.6,40.0,30.23,WSW,247,0.0,13.0,50,0.00,,,0.00,,VWS V14.01,2013-05-05 00:12:00,
2013-05-04 20:15:00,58.5,40.5,30.23,NE,48,0.0,13.0,51,0.00,,,0.00,0.00,VWS V14.01,2013-05-05 00:15:00,
2013-05-04 20:17:00,58.0,40.5,30.23,ENE,73,6.0,8.0,52,0.00,,,0.00,,VWS V14.01,2013-05-05 00:17:00,
2013-05-04 20:22:00,57.4,40.4,30.23,East,96,0.0,9.0,53,0.00,,,0.00,,VWS V14.01,2013-05-05 00:22:00,
2013-05-04 20:27:00,56.9,40.4,30.23,East,83,0.0,9.0,54,0.00,,,0.00,,VWS V14.01,2013-05-05 00:27:00,
2013-05-04 20:30:00,56.8,40.3,30.23,ENE,60,5.0,9.0,54,0.00,,,0.00,0.00,VWS V14.01,2013-05-05 00:30:00,
2013-05-04 20:32:00,56.4,40.5,30.23,NE,53,4.0,8.0,55,0.00,,,0.00,,VWS V14.01,2013-05-05 00:32:00,
2013-05-04 20:37:00,55.9,40.5,30.23,SE,130,0.0,10.0,56,0.00,,,0.00,,VWS V14.01,2013-05-05 00:37:00,
2013-05-04 20:42:00,55.5,40.5,30.23,ENE,78,1.0,10.0,57,0.00,,,0.00,,VWS V14.01,2013-05-05 00:42:00,
2013-05-04 20:45:00,55.3,40.3,30.24,ESE,107,5.0,10.0,57,0.00,,,0.00,0.00,VWS V14.01,2013-05-05 00:45:00,
2013-05-04 20:47:00,54.9,40.4,30.24,SSW,205,5.0,7.0,58,0.00,,,0.00,,VWS V14.01,2013-05-05 00:47:00,
2013-05-04 20:52:00,54.4,40.4,30.24,ENE,58,0.0,12.0,59,0.00,,,0.00,,VWS V14.01,2013-05-05 00:52:00,
2013-05-04 20:57:00,53.8,40.3,30.24,ESE,105,4.0,12.0,60,0.00,,,0.00,,VWS V14.01,2013-05-05 00:57:00,
2013-05-04 21:00:00,53.7,40.2,30.24,ENE,63,0.0,12.0,60,0.00,,,0.00,0.00,VWS V14.01,2013-05-05 01:00:00,
2013-05-04 21:02:00,53.4,40.3,30.24,ENE,62,0.0,5.0,61,0.00,,,0.00,,VWS V14.01,2013-05-05 01:02:00,
2013-05-04 21:07:00,53.1,40.0,30.24,ENE,73,0.0,6.0,61,0.00,,,0.00,,VWS V14.01,2013-05-05 01:07:00,
2013-05-04 21:12:00,52.8,39.7,30.24,NE,55,0.0,6.0,61,0.00,,,0.00,,VWS V14.01,2013-05-05 01:12:00,
2013-05-04 21:15:00,52.7,39.6,30.26,North,5,4.0,6.0,61,0.00,,,0.00,0.00,VWS V14.01,2013-05-05 01:15:00,
2013-05-04 21:17:00,52.5,39.5,30.26,North,5,0.0,6.0,61,0.00,,,0.00,,VWS V14.01,2013-05-05 01:17:00,
2013-05-04 21:22:00,52.4,39.8,30.26,NNE,21,0.0,6.0,62,0.00,,,0.00,,VWS V14.01,2013-05-05 01:22:00,
2013-05-04 21:27:00,52.1,39.5,30.26,North,5,0.0,7.0,62,0.00,,,0.00,,VWS V14.01,2013-05-05 01:27:00,
2013-05-04 21:30:00,52.1,39.9,30.26,North,5,0.0,7.0,63,0.00,,,0.00,0.00,VWS V14.01,2013-05-05 01:30:00,
2013-05-04 21:32:00,51.9,39.7,30.26,NNW,343,0.0,3.0,63,0.00,,,0.00,,VWS V14.01,2013-05-05 01:32:00,
2013-05-04 21:37:00,51.6,39.4,30.26,NE,35,0.0,9.0,63,0.00,,,0.00,,VWS V14.01,2013-05-05 01:37:00,
2013-05-04 21:42:00,51.3,40.0,30.26,ENE,66,0.0,9.0,65,0.00,,,0.00,,VWS V14.01,2013-05-05 01:42:00,
2013-05-04 21:45:00,51.2,39.8,30.26,ENE,66,0.0,9.0,65,0.00,,,0.00,0.00,VWS V14.01,2013-05-05 01:45:00,
2013-05-04 21:47:00,51.0,40.1,30.26,ENE,66,0.0,0.0,66,0.00,,,0.00,,VWS V14.01,2013-05-05 01:47:00,
2013-05-04 21:52:00,50.7,39.8,30.26,ENE,57,3.0,8.0,66,0.00,,,0.00,,VWS V14.01,2013-05-05 01:52:00,
2013-05-04 21:57:00,50.4,39.9,30.26,NE,55,0.0,8.0,67,0.00,,,0.00,,VWS V14.01,2013-05-05 01:57:00,
2013-05-04 22:00:00,50.4,39.5,30.27,NE,55,0.0,8.0,66,0.00,,,0.00,0.00,VWS V14.01,2013-05-05 02:00:00,
2013-05-04 22:02:00,50.3,39.4,30.27,NE,55,0.0,1.0,66,0.00,,,0.00,,VWS V14.01,2013-05-05 02:02:00,
2013-05-04 22:07:00,50.1,40.0,30.27,NE,55,2.0,5.0,68,0.00,,,0.00,,VWS V14.01,2013-05-05 02:07:00,
2013-05-04 22:12:00,49.8,39.7,30.27,NE,50,0.0,6.0,68,0.00,,,0.00,,VWS V14.01,2013-05-05 02:12:00,
2013-05-04 22:15:00,49.7,39.6,30.28,NE,50,5.0,6.0,68,0.00,,,0.00,0.00,VWS V14.01,2013-05-05 02:15:00,
2013-05-04 22:17:00,49.5,39.8,30.28,NE,49,0.0,5.0,69,0.00,,,0.00,,VWS V14.01,2013-05-05 02:17:00,
2013-05-04 22:22:00,49.4,39.7,30.28,ENE,62,5.0,6.0,69,0.00,,,0.00,,VWS V14.01,2013-05-05 02:22:00,
2013-05-04 22:27:00,49.1,39.4,30.28,ENE,64,6.0,7.0,69,0.00,,,0.00,,VWS V14.01,2013-05-05 02:27:00,
2013-05-04 22:30:00,49.1,39.4,30.28,ENE,74,0.0,7.0,69,0.00,,,0.00,0.00,VWS V14.01,2013-05-05 02:30:00,
2013-05-04 22:32:00,49.0,39.7,30.28,ENE,77,0.0,0.0,70,0.00,,,0.00,,VWS V14.01,2013-05-05 02:32:00,
2013-05-04 22:37:00,48.8,39.5,30.28,East,82,0.0,7.0,70,0.00,,,0.00,,VWS V14.01,2013-05-05 02:37:00,
2013-05-04 22:42:00,48.7,39.7,30.28,ENE,77,0.0,7.0,71,0.00,,,0.00,,VWS V14.01,2013-05-05 02:42:00,
2013-05-04 22:45:00,48.5,39.5,30.28,ENE,77,0.0,7.0,71,0.00,,,0.00,0.00,VWS V14.01,2013-05-05 02:45:00,
2013-05-04 22:47:00,48.4,39.4,30.28,ENE,77,0.0,1.0,71,0.00,,,0.00,,VWS V14.01,2013-05-05 02:47:00,
2013-05-04 22:52:00,48.2,39.2,30.28,ENE,77,0.0,5.0,71,0.00,,,0.00,,VWS V14.01,2013-05-05 02:52:00,
2013-05-04 22:57:00,48.1,39.5,30.28,ENE,77,0.0,5.0,72,0.00,,,0.00,,VWS V14.01,2013-05-05 02:57:00,
2013-05-04 23:00:00,48.1,39.5,30.28,East,89,4.0,5.0,72,0.00,,,0.00,0.00,VWS V14.01,2013-05-05 03:00:00,
2013-05-04 23:02:00,47.9,39.3,30.28,ESE,117,0.0,5.0,72,0.00,,,0.00,,VWS V14.01,2013-05-05 03:02:00,
2013-05-04 23:07:00,47.8,39.6,30.28,ESE,117,5.0,5.0,73,0.00,,,0.00,,VWS V14.01,2013-05-05 03:07:00,
2013-05-04 23:12:00,47.6,39.4,30.28,ESE,115,0.0,5.0,73,0.00,,,0.00,,VWS V14.01,2013-05-05 03:12:00,
2013-05-04 23:15:00,47.5,39.6,30.29,ENE,57,4.0,5.0,74,0.00,,,0.00,0.00,VWS V14.01,2013-05-05 03:15:00,
2013-05-04 23:17:00,47.3,39.5,30.29,ENE,63,0.0,4.0,74,0.00,,,0.00,,VWS V14.01,2013-05-05 03:17:00,
2013-05-04 23:22:00,47.2,39.3,30.29,ENE,63,0.0,4.0,74,0.00,,,0.00,,VWS V14.01,2013-05-05 03:22:00,
2013-05-04 23:27:00,47.2,39.3,30.29,ENE,63,0.0,4.0,74,0.00,,,0.00,,VWS V14.01,2013-05-05 03:27:00,
2013-05-04 23:30:00,47.0,39.5,30.29,East,86,0.0,4.0,75,0.00,,,0.00,0.00,VWS V14.01,2013-05-05 03:30:00,
2013-05-04 23:32:00,47.0,39.5,30.29,East,86,0.0,0.0,75,0.00,,,0.00,,VWS V14.01,2013-05-05 03:32:00,
2013-05-04 23:37:00,46.9,39.4,30.29,East,86,0.0,0.0,75,0.00,,,0.00,,VWS V14.01,2013-05-05 03:37:00,
2013-05-04 23:42:00,46.7,39.5,30.29,East,86,0.0,0.0,76,0.00,,,0.00,,VWS V14.01,2013-05-05 03:42:00,
2013-05-04 23:45:00,46.7,39.5,30.29,East,86,0.0,0.0,76,0.00,,,0.00,0.00,VWS V14.01,2013-05-05 03:45:00,
2013-05-04 23:47:00,46.6,39.5,30.29,East,86,0.0,1.0,76,0.00,,,0.00,,VWS V14.01,2013-05-05 03:47:00,
2013-05-04 23:52:00,46.4,39.6,30.29,East,86,0.0,1.0,77,0.00,,,0.00,,VWS V14.01,2013-05-05 03:52:00,
2013-05-04 23:57:00,46.3,39.5,30.29,East,86,0.0,1.0,77,0.00,,,0.00,,VWS V14.01,2013-05-05 03:57:00,